Time;durP1;ratioP1;P1;durP2;ratioP2;P2;SDS_P1;SDS_P2;PMS_P1;PMS_P2;Temp;Humidity;BMP_temperature;BMP_pressure;BME280_temperature;BME280_humidity;BME280_pressure;Samples;Min_cycle;Max_cycle;Signal;HPM_P1;HPM_P2
2022/11/05 00:10:38;;;;;;;48.80;43.60;;;;;;;11.20;76.65;99349.02;108569;1280;21988;-80
2022/11/05 00:19:05;;;;;;;52.90;46.00;;;;;;;11.24;76.57;99362.07;108449;1277;22218;-81
2022/11/05 00:27:14;;;;;;;49.30;44.10;;;;;;;11.27;76.63;99367.26;108535;1277;21951;-81
2022/11/05 00:29:43;;;;;;;47.40;42.40;;;;;;;11.29;76.52;99369.45;108462;1277;22714;-81
2022/11/05 00:32:13;;;;;;;49.20;44.10;;;;;;;11.31;76.54;99370.90;108440;1278;23059;-81
2022/11/05 00:34:45;;;;;;;55.80;48.70;;;;;;;11.32;76.56;99377.60;108636;1269;21930;-81
2022/11/05 00:37:14;;;;;;;51.80;46.30;;;;;;;11.29;76.41;99380.74;108682;1277;21951;-82
2022/11/05 00:39:45;;;;;;;53.50;47.30;;;;;;;11.25;76.32;99377.48;107849;1276;1117829;-81
2022/11/05 00:45:08;;;;;;;52.00;46.40;;;;;;;11.21;76.42;99385.02;108584;1278;21955;-80
2022/11/05 00:50:27;;;;;;;54.40;48.70;;;;;;;11.22;76.71;99401.88;108294;1282;21988;-80
2022/11/05 00:52:59;;;;;;;54.10;48.00;;;;;;;11.23;76.71;99408.91;108260;1283;22006;-82
2022/11/05 00:55:39;;;;;;;54.20;48.50;;;;;;;11.24;76.66;99413.41;108252;1283;22708;-82
2022/11/05 00:58:13;;;;;;;57.00;50.50;;;;;;;11.24;76.79;99411.84;108226;1283;21948;-82
2022/11/05 01:00:49;;;;;;;63.10;51.20;;;;;;;11.26;76.79;99406.66;107695;1289;21956;-82
2022/11/05 01:03:23;;;;;;;55.80;49.90;;;;;;;11.27;76.72;99403.16;107765;1289;21996;-81
2022/11/05 01:05:57;;;;;;;57.20;49.60;;;;;;;11.27;76.85;99402.41;107999;1280;21968;-81
2022/11/05 01:08:27;;;;;;;57.10;49.60;;;;;;;11.31;76.81;99399.63;108454;1281;21931;-81
2022/11/05 01:10:58;;;;;;;55.20;49.20;;;;;;;11.33;76.79;99406.45;108506;1279;23753;-80
2022/11/05 01:13:29;;;;;;;55.00;47.90;;;;;;;11.35;76.78;99404.98;108558;1281;22399;-80
2022/11/05 01:16:09;;;;;;;56.30;50.00;;;;;;;11.37;76.64;99408.52;108365;1278;21928;-80
2022/11/05 01:18:38;;;;;;;60.30;50.80;;;;;;;11.37;76.72;99411.13;108487;1275;23733;-81
2022/11/05 01:21:14;;;;;;;55.40;48.90;;;;;;;11.39;76.65;99416.23;108703;1275;22389;-78
2022/11/05 01:23:44;;;;;;;52.60;47.00;;;;;;;11.42;76.82;99420.80;108323;1275;22985;-80
2022/11/05 01:26:13;;;;;;;53.00;47.50;;;;;;;11.43;76.78;99420.71;108482;1275;24353;-80
2022/11/05 01:28:43;;;;;;;52.20;46.60;;;;;;;11.44;76.68;99428.34;108740;1275;22204;-81
2022/11/05 01:31:12;;;;;;;55.20;49.40;;;;;;;11.44;76.71;99432.67;108719;1273;21970;-80
2022/11/05 01:33:41;;;;;;;55.90;49.90;;;;;;;11.47;76.77;99436.02;108717;1275;21955;-80
2022/11/05 01:36:11;;;;;;;54.10;48.30;;;;;;;11.47;76.61;99439.84;108513;1280;21938;-79
2022/11/05 01:38:41;;;;;;;51.90;46.00;;;;;;;11.47;76.57;99440.21;108088;1281;21973;-81
2022/11/05 01:41:11;;;;;;;51.70;46.40;;;;;;;11.48;76.64;99443.96;108381;1270;23076;-81
2022/11/05 01:43:53;;;;;;;51.80;46.50;;;;;;;11.48;76.68;99445.52;108311;1280;21933;-80
2022/11/05 01:46:39;;;;;;;50.90;45.40;;;;;;;11.48;76.62;99448.51;108474;1280;21956;-81
2022/11/05 01:49:25;;;;;;;54.70;48.50;;;;;;;11.47;76.69;99446.96;108403;1280;23764;-79
2022/11/05 01:51:57;;;;;;;53.20;47.70;;;;;;;11.46;76.53;99445.13;108486;1280;21986;-79
2022/11/05 01:54:31;;;;;;;55.50;49.50;;;;;;;11.44;76.33;99448.73;108630;1274;21927;-80
2022/11/05 01:57:05;;;;;;;53.50;47.60;;;;;;;11.39;76.27;99454.02;108565;1274;21944;-80
2022/11/05 01:59:43;;;;;;;56.90;50.70;;;;;;;11.37;76.43;99453.28;108661;1274;23145;-80
2022/11/05 02:02:13;;;;;;;56.40;50.80;;;;;;;11.38;76.52;99446.64;108782;1275;21935;-80
2022/11/05 02:04:52;;;;;;;59.30;51.20;;;;;;;11.38;76.56;99448.00;108443;1275;21973;-80
2022/11/05 02:07:25;;;;;;;66.20;52.40;;;;;;;11.39;76.64;99453.55;108534;1274;23671;-79
2022/11/05 02:10:05;;;;;;;60.20;53.70;;;;;;;11.41;76.80;99458.30;108570;1275;21978;-79
2022/11/05 02:12:39;;;;;;;60.00;53.20;;;;;;;11.41;76.82;99458.82;108314;1274;22299;-79
2022/11/05 02:15:12;;;;;;;64.30;55.70;;;;;;;11.41;76.82;99462.30;108391;1274;21925;-79
2022/11/05 02:18:49;;;;;;;62.50;55.80;;;;;;;11.40;76.67;99463.90;108733;1275;23795;-80
2022/11/05 02:21:46;;;;;;;64.30;57.30;;;;;;;11.35;76.76;99467.30;108322;1283;22731;-81
2022/11/05 02:24:31;;;;;;;64.10;57.20;;;;;;;11.34;76.82;99466.02;107700;1285;23620;-81
2022/11/05 02:27:05;;;;;;;62.50;55.80;;;;;;;11.33;76.86;99469.35;107897;1289;22567;-82
2022/11/05 02:30:05;;;;;;;61.50;55.20;;;;;;;11.34;76.77;99472.23;107823;1288;21954;-81
2022/11/05 02:32:56;;;;;;;55.80;50.10;;;;;;;11.32;76.86;99477.57;107943;1288;23968;-80
2022/11/05 02:35:48;;;;;;;56.80;50.70;;;;;;;11.29;76.77;99480.17;107937;1275;23760;-80
2022/11/05 02:38:56;;;;;;;51.60;46.40;;;;;;;11.25;76.74;99485.11;108026;1278;21972;-80
2022/11/05 02:42:10;;;;;;;53.90;48.40;;;;;;;11.22;76.78;99489.30;107951;1282;23759;-80
2022/11/05 02:45:08;;;;;;;54.10;48.60;;;;;;;11.20;76.97;99482.24;108333;1283;22354;-80
2022/11/05 02:47:50;;;;;;;56.40;50.40;;;;;;;11.19;76.99;99479.33;108535;1283;24299;-81
2022/11/05 02:50:59;;;;;;;55.10;49.10;;;;;;;11.17;76.88;99485.20;108466;1283;21908;-81
2022/11/05 02:53:32;;;;;;;53.50;47.80;;;;;;;11.13;76.92;99490.83;107866;1289;23785;-81
2022/11/05 02:56:19;;;;;;;50.80;45.40;;;;;;;11.12;76.96;99501.83;107561;1287;23015;-79
2022/11/05 02:58:49;;;;;;;47.40;42.90;;;;;;;11.11;76.96;99511.80;108152;1283;21938;-79
2022/11/05 03:01:18;;;;;;;42.80;38.60;;;;;;;11.11;76.86;99514.93;107912;1284;22026;-79
2022/11/05 03:04:03;;;;;;;41.80;37.90;;;;;;;11.09;76.74;99519.92;108197;1283;21944;-80
2022/11/05 03:06:58;;;;;;;42.30;38.30;;;;;;;11.07;76.89;99532.41;108208;1283;22378;-81
2022/11/05 03:10:02;;;;;;;40.60;36.80;;;;;;;11.05;76.87;99546.80;108312;1283;21939;-81
2022/11/05 03:13:02;;;;;;;40.10;36.30;;;;;;;11.01;76.94;99556.91;108338;1283;23060;-80
2022/11/05 03:15:51;;;;;;;43.10;38.80;;;;;;;10.98;76.93;99575.34;108437;1281;21948;-80
2022/11/05 03:18:47;;;;;;;44.80;40.40;;;;;;;10.94;76.75;99581.67;108177;1275;21989;-81
2022/11/05 03:21:30;;;;;;;49.60;44.60;;;;;;;10.89;76.69;99583.27;108295;1283;22743;-81
2022/11/05 03:24:12;;;;;;;51.40;46.20;;;;;;;10.84;76.73;99571.87;108141;1284;21946;-80
2022/11/05 03:26:59;;;;;;;49.80;44.50;;;;;;;10.77;76.61;99565.80;108168;1283;22916;-81
2022/11/05 03:29:41;;;;;;;54.70;49.00;;;;;;;10.76;76.65;99573.16;107934;1284;22402;-82
2022/11/05 03:32:13;;;;;;;56.20;49.10;;;;;;;10.73;76.88;99580.12;108436;1275;23050;-80
2022/11/05 03:34:55;;;;;;;60.30;52.60;;;;;;;10.71;76.79;99586.61;108337;1282;21947;-81
2022/11/05 03:37:30;;;;;;;;;;;;;;;10.69;76.75;99591.61;108212;1280;22384;-80
2022/11/05 03:40:05;;;;;;;63.40;52.30;;;;;;;10.56;76.99;99595.04;108155;1283;21943;-80
2022/11/05 03:42:39;;;;;;;68.40;56.50;;;;;;;10.53;77.06;99603.00;107964;1286;24468;-81
2022/11/05 03:45:26;;;;;;;68.40;55.30;;;;;;;10.56;77.17;99610.54;107920;1287;23061;-81
2022/11/05 03:48:00;;;;;;;73.90;60.80;;;;;;;10.57;77.07;99610.31;107961;1286;23126;-80
2022/11/05 03:51:01;;;;;;;70.00;58.50;;;;;;;10.57;76.95;99612.75;107977;1286;21960;-80
2022/11/05 03:53:39;;;;;;;76.00;63.40;;;;;;;10.53;76.96;99620.95;107961;1280;21954;-80
2022/11/05 03:56:26;;;;;;;76.00;60.90;;;;;;;10.54;76.99;99627.67;108261;1281;21930;-80
2022/11/05 03:58:58;;;;;;;73.50;60.00;;;;;;;10.54;76.93;99629.09;108564;1275;23176;-79
2022/11/05 04:01:29;;;;;;;81.60;64.20;;;;;;;10.55;76.99;99635.29;108481;1274;21935;-81
2022/11/05 04:03:59;;;;;;;78.20;63.10;;;;;;;10.54;76.86;99646.65;108260;1280;23174;-81
2022/11/05 04:14:53;;;;;;;69.70;56.60;;;;;;;10.48;76.90;99646.94;108037;1280;21963;-80
2022/11/05 04:17:23;;;;;;;67.50;58.40;;;;;;;10.47;76.92;99650.09;108193;1280;21955;-80
2022/11/05 04:25:28;;;;;;;59.20;52.10;;;;;;;10.40;76.75;99672.54;108736;1274;21947;-81
2022/11/05 04:27:59;;;;;;;59.60;52.80;;;;;;;10.36;76.73;99681.05;108677;1275;21983;-81
2022/11/05 04:30:30;;;;;;;64.60;56.10;;;;;;;10.36;76.79;99696.22;108642;1274;22200;-81
2022/11/05 04:33:06;;;;;;;63.80;54.90;;;;;;;10.37;76.87;99704.52;108264;1283;21942;-80
2022/11/05 04:35:47;;;;;;;60.00;50.70;;;;;;;10.36;76.71;99709.24;108462;1280;21937;-80
2022/11/05 04:38:19;;;;;;;59.20;51.20;;;;;;;10.35;76.66;99720.23;108353;1280;23680;-80
2022/11/05 04:40:48;;;;;;;56.20;48.60;;;;;;;10.38;76.76;99721.70;108364;1280;21937;-80
2022/11/05 04:43:18;;;;;;;54.50;44.60;;;;;;;10.37;76.67;99722.27;108276;1280;22416;-80
2022/11/05 04:45:48;;;;;;;57.20;46.60;;;;;;;10.36;76.80;99719.83;108158;1286;21954;-80
2022/11/05 04:48:18;;;;;;;53.90;46.50;;;;;;;10.39;76.93;99715.70;108148;1286;21965;-80
2022/11/05 04:50:47;;;;;;;48.20;43.10;;;;;;;10.42;76.84;99725.69;108035;1283;22044;-77
2022/11/05 04:53:16;;;;;;;51.30;44.00;;;;;;;10.40;76.79;99726.80;107716;1283;22098;-76
2022/11/05 04:55:47;;;;;;;44.80;40.00;;;;;;;10.42;76.81;99731.27;107662;1286;23591;-77
2022/11/05 04:58:16;;;;;;;43.80;39.10;;;;;;;10.42;76.87;99729.84;107290;1286;23705;-77
2022/11/05 05:00:48;;;;;;;43.00;38.50;;;;;;;10.40;76.81;99733.93;107184;1289;22023;-77
2022/11/05 05:03:18;;;;;;;38.90;34.90;;;;;;;10.41;76.86;99736.86;107246;1286;23069;-81
2022/11/05 05:05:48;;;;;;;39.30;35.10;;;;;;;10.40;76.70;99737.77;108014;1286;24501;-81
2022/11/05 05:08:22;;;;;;;38.90;34.60;;;;;;;10.38;76.61;99737.67;107926;1282;23060;-81
2022/11/05 05:10:52;;;;;;;38.40;34.40;;;;;;;10.37;76.63;99740.16;107920;1286;23900;-81
2022/11/05 05:13:23;;;;;;;37.50;33.80;;;;;;;10.37;76.65;99739.48;107945;1283;23078;-82
2022/11/05 05:16:06;;;;;;;34.20;30.80;;;;;;;10.37;76.68;99741.73;108388;1274;23621;-81
2022/11/05 05:18:40;;;;;;;33.90;30.50;;;;;;;10.38;76.70;99740.83;108399;1275;22001;-82
2022/11/05 05:21:38;;;;;;;31.40;28.20;;;;;;;10.37;76.49;99749.73;108529;1274;21927;-81
2022/11/05 05:24:20;;;;;;;33.70;30.40;;;;;;;10.37;76.64;99757.41;108621;1275;22991;-80
2022/11/05 05:26:51;;;;;;;30.20;27.10;;;;;;;10.39;76.59;99761.83;108699;1277;22004;-80
2022/11/05 05:29:20;;;;;;;29.80;26.80;;;;;;;10.39;76.57;99761.97;108644;1272;23045;-81
2022/11/05 05:31:50;;;;;;;27.50;24.80;;;;;;;10.42;76.47;99763.79;108318;1285;23758;-80
2022/11/05 05:34:19;;;;;;;27.40;24.70;;;;;;;10.41;76.30;99770.39;108306;1281;23084;-80
2022/11/05 05:36:49;;;;;;;25.90;23.40;;;;;;;10.43;76.36;99768.95;107907;1286;22206;-81
2022/11/05 05:39:27;;;;;;;26.20;23.80;;;;;;;10.44;76.31;99774.09;107946;1287;23793;-81
2022/11/05 05:42:02;;;;;;;26.90;24.50;;;;;;;10.46;76.30;99782.03;107889;1287;21991;-82
2022/11/05 05:44:32;;;;;;;23.60;21.40;;;;;;;10.47;76.24;99782.31;107892;1286;21941;-83
2022/11/05 05:47:04;;;;;;;22.80;20.40;;;;;;;10.46;76.14;99784.61;107894;1288;22396;-81
2022/11/05 05:49:43;;;;;;;22.30;20.20;;;;;;;10.42;76.06;99783.26;108205;1283;21967;-82
2022/11/05 05:52:16;;;;;;;21.60;19.60;;;;;;;10.40;76.12;99787.33;108342;1271;22020;-82
2022/11/05 05:54:46;;;;;;;22.10;20.00;;;;;;;10.42;76.12;99789.17;108272;1281;23005;-81
2022/11/05 05:57:19;;;;;;;19.30;17.60;;;;;;;10.42;75.95;99788.65;107711;1286;21958;-81
2022/11/05 05:59:50;;;;;;;18.00;16.30;;;;;;;10.42;75.93;99791.95;107905;1287;21966;-81
2022/11/05 06:02:30;;;;;;;17.30;15.80;;;;;;;10.39;76.02;99796.77;107329;1289;23678;-82
2022/11/05 06:05:03;;;;;;;18.50;16.90;;;;;;;10.37;75.86;99801.21;107916;1289;21964;-82
2022/11/05 06:07:39;;;;;;;17.60;16.00;;;;;;;10.35;75.80;99801.48;107828;1289;22303;-83
2022/11/05 06:10:09;;;;;;;17.40;15.90;;;;;;;10.34;75.81;99806.38;107515;1294;21946;-82
2022/11/05 06:12:39;;;;;;;16.20;14.80;;;;;;;10.34;75.72;99807.78;107354;1292;21968;-82
2022/11/05 06:15:10;;;;;;;13.50;12.30;;;;;;;10.36;75.77;99818.67;106880;1293;22512;-82
2022/11/05 06:17:44;;;;;;;14.50;13.30;;;;;;;10.36;75.76;99826.48;106320;1303;22746;-82
2022/11/05 06:20:14;;;;;;;15.10;13.80;;;;;;;10.36;75.77;99829.79;106456;1297;21987;-82
2022/11/05 06:22:58;;;;;;;12.60;11.30;;;;;;;10.37;75.74;99833.06;107227;1292;24313;-81
2022/11/05 06:25:30;;;;;;;12.10;11.00;;;;;;;10.35;75.92;99834.34;106884;1297;21982;-81
2022/11/05 06:28:08;;;;;;;11.50;10.40;;;;;;;10.35;75.61;99840.61;106825;1293;21956;-81
2022/11/05 06:30:39;;;;;;;11.90;10.30;;;;;;;10.34;75.54;99852.14;107010;1293;23053;-81
2022/11/05 06:33:09;;;;;;;10.70;9.80;;;;;;;10.34;75.70;99861.15;107110;1287;24297;-83
2022/11/05 06:35:47;;;;;;;10.40;9.50;;;;;;;10.38;75.80;99866.92;107565;1284;22709;-83
2022/11/05 06:38:28;;;;;;;10.60;9.70;;;;;;;10.41;75.79;99869.55;107040;1294;23128;-82
2022/11/05 06:41:07;;;;;;;10.60;9.60;;;;;;;10.42;75.77;99879.08;107280;1290;21953;-81
2022/11/05 06:43:39;;;;;;;;;;;;;;;10.43;75.68;99880.41;107313;1294;23703;-82
2022/11/05 06:46:10;;;;;;;9.90;8.90;;;;;;;10.37;75.85;99880.71;107465;1291;21963;-82
2022/11/05 06:48:39;;;;;;;10.10;8.70;;;;;;;10.38;75.78;99887.77;107698;1291;23051;-82
2022/11/05 06:51:08;;;;;;;9.30;8.30;;;;;;;10.42;75.75;99898.23;108150;1283;21952;-83
2022/11/05 06:53:38;;;;;;;10.10;8.90;;;;;;;10.44;75.74;99904.59;108330;1285;21957;-82
2022/11/05 06:56:08;;;;;;;9.70;8.80;;;;;;;10.46;75.64;99911.08;108398;1278;21985;-82
2022/11/05 06:58:40;;;;;;;9.10;8.30;;;;;;;10.48;75.71;99920.71;108521;1280;21968;-82
2022/11/05 07:01:11;;;;;;;9.20;8.40;;;;;;;10.52;75.69;99922.31;108686;1277;23615;-82
2022/11/05 07:03:43;;;;;;;9.30;8.40;;;;;;;10.56;75.71;99924.40;108443;1278;21947;-82
2022/11/05 07:06:13;;;;;;;8.40;7.70;;;;;;;10.59;75.71;99933.11;108581;1278;23062;-81
2022/11/05 07:08:42;;;;;;;8.60;7.70;;;;;;;10.64;75.65;99932.58;108540;1276;21953;-82
2022/11/05 07:11:12;;;;;;;8.00;7.30;;;;;;;10.66;75.62;99936.65;108704;1276;23083;-82
2022/11/05 07:13:41;;;;;;;8.90;8.00;;;;;;;10.69;75.53;99947.66;108575;1274;21939;-81
2022/11/05 07:16:12;;;;;;;8.40;7.70;;;;;;;10.70;75.59;99952.83;108605;1279;22735;-82
2022/11/05 07:18:42;;;;;;;;;;;;;;;10.73;75.58;99951.64;108439;1269;22182;-82
2022/11/05 07:21:11;;;;;;;9.00;8.20;;;;;;;10.67;75.72;99948.06;108682;1274;22738;-81
2022/11/05 07:23:41;;;;;;;9.20;8.30;;;;;;;10.69;75.69;99948.69;108611;1274;22105;-82
2022/11/05 07:26:11;;;;;;;7.20;6.60;;;;;;;10.72;75.56;99945.09;108538;1276;21960;-82
2022/11/05 07:28:40;;;;;;;6.60;6.00;;;;;;;10.73;75.59;99943.64;108614;1279;21998;-82
2022/11/05 07:31:10;;;;;;;6.80;6.20;;;;;;;10.74;75.57;99947.40;108613;1279;21937;-79
2022/11/05 07:33:39;;;;;;;7.10;6.40;;;;;;;10.76;75.52;99947.67;108415;1275;21928;-78
2022/11/05 07:36:09;;;;;;;6.10;5.50;;;;;;;10.78;75.64;99946.05;108484;1275;23584;-79
2022/11/05 07:38:38;;;;;;;4.80;4.40;;;;;;;10.78;75.57;99946.38;108686;1278;22721;-79
2022/11/05 07:41:07;;;;;;;6.00;5.50;;;;;;;10.79;75.64;99954.17;108434;1277;23059;-80
2022/11/05 07:43:41;;;;;;;5.20;4.30;;;;;;;10.80;75.67;99961.08;108437;1277;23601;-80
2022/11/05 07:46:10;;;;;;;5.50;4.90;;;;;;;10.81;75.57;99967.85;108699;1275;23051;-78
2022/11/05 07:48:44;;;;;;;10.90;9.60;;;;;;;10.82;75.61;99967.77;108384;1279;21917;-86
2022/11/05 07:51:17;;;;;;;8.40;7.30;;;;;;;10.84;75.45;99976.42;108683;1276;21948;-80
2022/11/05 07:53:47;;;;;;;5.30;4.40;;;;;;;10.86;75.43;99991.83;108284;1280;22992;-79
2022/11/05 07:56:17;;;;;;;4.80;3.50;;;;;;;10.89;75.36;99995.14;108292;1281;23797;-80
2022/11/05 07:58:52;;;;;;;3.40;2.90;;;;;;;10.88;75.03;100001.30;108336;1276;23638;-79
2022/11/05 08:01:25;;;;;;;5.80;3.10;;;;;;;10.85;74.98;100005.93;108128;1283;21981;-79
2022/11/05 08:03:54;;;;;;;3.80;2.90;;;;;;;10.83;74.88;100006.40;107973;1282;23050;-78
2022/11/05 08:06:23;;;;;;;4.50;3.50;;;;;;;10.83;75.02;100001.88;108300;1280;21955;-79
2022/11/05 08:08:52;;;;;;;4.40;3.40;;;;;;;10.84;74.85;100006.00;108086;1283;21955;-79
2022/11/05 08:11:21;;;;;;;4.50;4.00;;;;;;;10.82;74.71;100007.99;108170;1278;23640;-79
2022/11/05 08:13:50;;;;;;;6.40;4.10;;;;;;;10.79;74.72;100016.51;108593;1275;21927;-79
2022/11/05 08:16:19;;;;;;;4.60;4.10;;;;;;;10.79;74.87;100019.98;108093;1281;22231;-79
2022/11/05 08:18:48;;;;;;;7.40;5.10;;;;;;;10.79;74.90;100022.93;108189;1279;22513;-80
2022/11/05 08:21:18;;;;;;;5.50;4.40;;;;;;;10.77;74.80;100025.94;108384;1283;23055;-79
2022/11/05 08:23:47;;;;;;;5.50;5.00;;;;;;;10.77;74.84;100027.54;108098;1284;21947;-79
2022/11/05 08:26:16;;;;;;;7.60;4.90;;;;;;;10.76;74.90;100036.26;108065;1283;22127;-80
2022/11/05 08:28:45;;;;;;;5.90;4.20;;;;;;;10.75;74.95;100038.77;108183;1283;22737;-79
2022/11/05 08:31:16;;;;;;;10.00;4.70;;;;;;;10.75;75.04;100043.25;108098;1283;21949;-80
2022/11/05 08:33:45;;;;;;;5.30;3.80;;;;;;;10.75;74.90;100049.20;108325;1271;21943;-80
2022/11/05 08:36:14;;;;;;;5.30;3.40;;;;;;;10.76;75.00;100050.54;108437;1280;21935;-79
2022/11/05 08:38:43;;;;;;;6.70;3.80;;;;;;;10.80;74.92;100053.88;108476;1277;22032;-79
2022/11/05 08:41:13;;;;;;;6.50;2.90;;;;;;;10.80;74.73;100057.70;108533;1270;22149;-78
2022/11/05 08:43:42;;;;;;;6.70;3.40;;;;;;;10.81;74.67;100061.84;108633;1269;22158;-78
2022/11/05 08:46:11;;;;;;;5.90;3.40;;;;;;;10.85;74.74;100063.23;108420;1280;23136;-79
2022/11/05 08:48:40;;;;;;;5.00;3.10;;;;;;;10.92;74.73;100064.45;108462;1279;21939;-80
2022/11/05 08:51:10;;;;;;;5.30;3.10;;;;;;;10.95;74.27;100072.37;108700;1279;21966;-85
2022/11/05 08:53:44;;;;;;;4.90;3.20;;;;;;;10.95;74.10;100077.21;108770;1276;21930;-82
2022/11/05 08:56:14;;;;;;;5.80;3.90;;;;;;;10.96;73.82;100081.02;108717;1280;22774;-82
2022/11/05 08:58:44;;;;;;;4.10;3.10;;;;;;;10.95;73.70;100083.67;108850;1280;21996;-83
2022/11/05 09:01:16;;;;;;;5.90;2.90;;;;;;;10.95;73.62;100084.38;108823;1280;22271;-83
2022/11/05 09:04:03;;;;;;;6.30;2.80;;;;;;;10.94;73.54;100092.10;108641;1280;21939;-83
2022/11/05 09:06:32;;;;;;;4.90;2.70;;;;;;;10.97;73.55;100097.34;108687;1280;21935;-83
2022/11/05 09:09:02;;;;;;;7.10;2.70;;;;;;;11.02;73.28;100104.10;108806;1281;21951;-83
2022/11/05 09:11:31;;;;;;;4.40;2.60;;;;;;;11.04;73.10;100107.31;108673;1279;22060;-82
2022/11/05 09:14:20;;;;;;;6.90;3.00;;;;;;;11.08;73.11;100112.55;108820;1281;24077;-83
2022/11/05 09:16:49;;;;;;;5.50;3.30;;;;;;;11.13;72.82;100114.06;108731;1280;21949;-83
2022/11/05 09:19:18;;;;;;;6.60;3.10;;;;;;;11.18;72.54;100109.48;108732;1281;21965;-83
2022/11/05 09:21:47;;;;;;;6.40;3.20;;;;;;;11.19;72.45;100114.68;108659;1281;23585;-84
2022/11/05 09:24:17;;;;;;;6.30;2.50;;;;;;;11.24;72.47;100119.48;108650;1275;21939;-82
2022/11/05 09:26:46;;;;;;;6.60;2.60;;;;;;;11.28;72.14;100126.45;108749;1277;23136;-82
2022/11/05 09:29:15;;;;;;;4.20;2.20;;;;;;;11.27;71.72;100136.44;108687;1280;21964;-83
2022/11/05 09:31:44;;;;;;;6.20;2.90;;;;;;;11.24;71.38;100148.08;108768;1280;23076;-82
2022/11/05 09:34:13;;;;;;;7.90;4.70;;;;;;;11.21;71.25;100149.59;108671;1279;21997;-83
2022/11/05 09:36:42;;;;;;;6.60;3.70;;;;;;;11.20;71.16;100161.48;108727;1277;23579;-83
2022/11/05 09:39:12;;;;;;;14.40;12.10;;;;;;;11.22;71.10;100163.15;108706;1279;21927;-83
2022/11/05 09:41:43;;;;;;;10.50;4.40;;;;;;;11.24;71.07;100161.28;108438;1279;24286;-84
2022/11/05 09:44:24;;;;;;;8.00;3.60;;;;;;;11.26;70.89;100159.81;108658;1279;23335;-84
2022/11/05 09:47:01;;;;;;;7.50;3.40;;;;;;;11.27;70.85;100164.13;108706;1279;21954;-84
2022/11/05 09:49:41;;;;;;;7.50;3.90;;;;;;;11.26;70.74;100167.84;108388;1285;21960;-83
2022/11/05 09:52:18;;;;;;;7.20;4.40;;;;;;;11.24;70.58;100167.39;108416;1283;23090;-83
2022/11/05 09:54:49;;;;;;;7.90;4.20;;;;;;;11.26;70.61;100173.23;108270;1285;22341;-84
2022/11/05 09:57:36;;;;;;;6.30;3.30;;;;;;;11.29;70.52;100173.44;108345;1285;21953;-84
2022/11/05 10:00:15;;;;;;;5.10;3.60;;;;;;;11.30;70.37;100178.10;107716;1290;21941;-82
2022/11/05 10:02:58;;;;;;;12.40;4.30;;;;;;;11.33;70.14;100186.67;107065;1297;23023;-82
2022/11/05 10:05:32;;;;;;;7.50;5.20;;;;;;;11.33;70.11;100190.15;107239;1289;21969;-81
2022/11/05 10:08:40;;;;;;;9.30;5.40;;;;;;;11.34;70.25;100192.73;107624;1289;22183;-81
2022/11/05 10:11:42;;;;;;;8.10;4.50;;;;;;;11.38;70.10;100197.78;107949;1277;21501;-83
2022/11/05 10:14:45;;;;;;;7.00;3.40;;;;;;;11.37;69.78;100198.38;107216;1297;21949;-84
2022/11/05 10:18:00;;;;;;;8.40;3.30;;;;;;;11.33;69.96;100195.94;107207;1295;22180;-83
2022/11/05 10:20:51;;;;;;;11.70;5.20;;;;;;;11.41;70.02;100194.20;107697;1295;22025;-82
2022/11/05 10:23:27;;;;;;;7.90;4.40;;;;;;;11.45;69.85;100199.92;107747;1295;23708;-84
2022/11/05 10:26:16;;;;;;;7.40;4.20;;;;;;;11.50;69.70;100205.65;107527;1295;21989;-83
2022/11/05 10:28:50;;;;;;;8.90;4.30;;;;;;;11.52;69.50;100209.93;108013;1289;21952;-83
2022/11/05 10:31:25;;;;;;;10.20;4.60;;;;;;;11.52;69.40;100217.58;108135;1289;23029;-83
2022/11/05 10:34:08;;;;;;;8.60;4.00;;;;;;;11.50;69.29;100217.48;108108;1289;21950;-83
2022/11/05 10:36:58;;;;;;;;;;;;;;;11.51;69.36;100221.95;108058;1289;24262;-81
2022/11/05 10:39:36;;;;;;;6.10;3.80;;;;;;;11.46;69.60;100226.71;108184;1286;21945;-84
2022/11/05 10:42:50;;;;;;;7.60;4.10;;;;;;;11.49;69.46;100228.86;108293;1289;22824;-83
2022/11/05 10:45:39;;;;;;;9.00;4.20;;;;;;;11.49;69.50;100226.61;107852;1291;21927;-83
2022/11/05 10:48:40;;;;;;;7.60;4.10;;;;;;;11.53;69.40;100226.60;107831;1292;22168;-82
2022/11/05 10:51:17;;;;;;;7.70;3.90;;;;;;;11.53;69.21;100224.67;107919;1287;21964;-82
2022/11/05 10:54:15;;;;;;;8.40;4.30;;;;;;;11.54;69.09;100223.59;108282;1273;21988;-82
2022/11/05 10:56:47;;;;;;;10.80;4.40;;;;;;;11.58;69.23;100227.77;108067;1285;23179;-82
2022/11/05 10:59:34;;;;;;;9.40;4.40;;;;;;;11.61;68.99;100226.23;108234;1285;21976;-82
2022/11/05 11:02:47;;;;;;;8.00;3.90;;;;;;;11.62;68.91;100231.11;107845;1291;21937;-83
2022/11/05 11:05:43;;;;;;;10.10;4.40;;;;;;;11.63;68.94;100234.73;107990;1288;23063;-82
2022/11/05 11:09:19;;;;;;;;;;;;;;;;;;;;;
2022/11/05 11:12:24;;;;;;;7.40;4.80;;;;;;;11.64;68.85;100242.30;108202;1289;21965;-82
2022/11/05 11:15:34;;;;;;;9.70;4.60;;;;;;;11.74;68.76;100237.90;108049;1290;21956;-82
2022/11/05 11:18:37;;;;;;;8.90;4.40;;;;;;;11.72;68.55;100238.85;107235;1297;22008;-82
2022/11/05 11:21:21;;;;;;;12.90;6.60;;;;;;;11.73;68.53;100245.06;108033;1287;21968;-85
2022/11/05 11:24:28;;;;;;;10.00;4.70;;;;;;;11.77;68.55;100245.95;108298;1288;21978;-84
2022/11/05 11:27:08;;;;;;;12.20;6.60;;;;;;;11.85;68.61;100249.92;108283;1290;22352;-84
2022/11/05 11:29:54;;;;;;;8.40;5.10;;;;;;;11.95;68.51;100253.52;107833;1281;22430;-84
2022/11/05 11:32:38;;;;;;;7.70;4.30;;;;;;;11.97;68.19;100252.41;107952;1288;23922;-84
2022/11/05 11:35:42;;;;;;;10.00;6.70;;;;;;;12.01;68.17;100264.10;108093;1287;22020;-84
2022/11/05 11:38:35;;;;;;;9.10;5.50;;;;;;;12.00;67.97;100262.55;108245;1287;21984;-81
2022/11/05 11:41:24;;;;;;;10.70;7.00;;;;;;;11.96;67.80;100261.70;107981;1286;21946;-81
2022/11/05 11:44:14;;;;;;;11.70;6.90;;;;;;;11.97;67.76;100266.73;108337;1284;21966;-82
2022/11/05 11:46:49;;;;;;;15.40;8.20;;;;;;;12.01;67.78;100272.98;108237;1282;23057;-83
2022/11/05 11:50:01;;;;;;;13.90;8.90;;;;;;;12.01;67.51;100273.83;108352;1284;23167;-82
2022/11/05 11:52:34;;;;;;;14.90;7.20;;;;;;;11.94;67.44;100272.06;108346;1279;21940;-81
2022/11/05 11:55:21;;;;;;;12.30;7.90;;;;;;;11.93;67.45;100272.83;108083;1281;23691;-82
2022/11/05 11:58:10;;;;;;;13.70;8.00;;;;;;;11.90;67.50;100273.43;108349;1280;21950;-82
2022/11/05 12:00:48;;;;;;;17.10;8.60;;;;;;;11.92;67.73;100273.36;107882;1289;23587;-83
2022/11/05 12:03:34;;;;;;;11.60;8.20;;;;;;;11.94;67.62;100272.39;108201;1285;21925;-83
2022/11/05 12:06:18;;;;;;;15.90;8.90;;;;;;;11.97;67.68;100268.64;108316;1281;21950;-82
2022/11/05 12:09:23;;;;;;;13.80;8.60;;;;;;;12.00;67.67;100270.21;107982;1286;21939;-82
2022/11/05 12:12:20;;;;;;;11.40;7.90;;;;;;;11.99;67.43;100275.34;107934;1289;21955;-82
2022/11/05 12:14:49;;;;;;;11.60;7.60;;;;;;;11.93;67.37;100281.34;108298;1271;23075;-82
2022/11/05 12:17:37;;;;;;;15.00;7.80;;;;;;;11.89;67.24;100290.03;108454;1272;23070;-81
2022/11/05 12:20:26;;;;;;;14.10;8.30;;;;;;;11.84;67.33;100298.62;108687;1275;22018;-81
2022/11/05 12:23:19;;;;;;;15.30;7.90;;;;;;;11.83;67.50;100299.75;108901;1274;22999;-82
2022/11/05 12:26:45;;;;;;;13.80;8.30;;;;;;;11.82;67.65;100304.64;108818;1276;22278;-82
2022/11/05 12:29:52;;;;;;;11.20;7.90;;;;;;;11.75;67.68;100306.85;108714;1276;23595;-82
2022/11/05 12:32:21;;;;;;;14.30;9.00;;;;;;;11.70;67.81;100314.21;108679;1276;23063;-83
2022/11/05 12:35:15;;;;;;;12.20;8.00;;;;;;;11.74;67.85;100318.60;108629;1277;23749;-82
2022/11/05 12:38:06;;;;;;;10.10;7.60;;;;;;;11.74;67.90;100324.16;108681;1274;23696;-82
2022/11/05 12:41:01;;;;;;;15.10;7.60;;;;;;;11.75;68.03;100324.99;107969;1278;1025040;-82
2022/11/05 12:44:12;;;;;;;14.60;8.00;;;;;;;11.77;67.94;100324.02;108621;1281;22393;-82
2022/11/05 12:47:38;;;;;;;17.10;8.80;;;;;;;11.74;68.02;100324.32;108686;1273;23072;-82